Home > Products > Valid Products > TAF

000
FTUS46 KPDT 281700
TAFRDM
TAF
KRDM 281720Z 2818/2918 VRB04KT P6SM SKC
     FM282000 33011KT P6SM FEW120
     FM290600 VRB04KT P6SM SCT120
     FM291000 17005KT P6SM BKN120=



000
FTUS46 KPDT 281700
TAFALW
TAF
KALW 281720Z 2818/2918 24006KT P6SM SCT150
     FM282000 24007KT P6SM SKC
     FM290100 18007KT P6SM SKC
     FM290700 11007KT P6SM SKC
     FM291600 22006KT P6SM SCT150=



000
FTUS46 KPDT 281700
TAFPDT
TAF
KPDT 281720Z 2818/2918 29006KT P6SM FEW150
     FM282000 33009KT P6SM SKC
     FM290500 14007KT P6SM SKC
     FM291400 VRB05KT P6SM SCT150=



000
FTUS46 KPDT 281700
TAFYKM
TAF
KYKM 281720Z 2818/2918 VRB06KT P6SM SKC
     FM290400 27007KT P6SM SKC=



000
FTUS46 KPDT 281700
TAFDLS
TAF
KDLS 281720Z 2818/2918 32011KT P6SM SKC
     FM282300 32014G20KT P6SM SKC
     FM290400 31007KT P6SM SKC
     FM291500 32009KT P6SM SCT150=



000
FTUS46 KPDT 281700
TAFPSC
TAF
KPSC 281720Z 2818/2918 VRB04KT P6SM SKC
     FM282000 33009KT P6SM SKC
     FM290400 VRB04KT P6SM SCT200
     FM291600 VRB05KT P6SM FEW150=



000
FTUS46 KPDT 281100
TAFYKM
TAF
KYKM 281120Z 2812/2912 27007KT P6SM SCT200
     FM281800 VRB05KT P6SM SKC
     FM290400 30007KT P6SM SKC=



000
FTUS46 KPDT 281100
TAFALW
TAF
KALW 281120Z 2812/2912 12007KT P6SM FEW110 BKN250
     FM281500 VRB06KT P6SM SCT200
     FM282000 33008KT P6SM FEW120 SCT200
     FM290400 15007KT P6SM SCT200=



000
FTUS46 KPDT 281100
TAFRDM
TAF
KRDM 281120Z 2812/2912 VRB04KT P6SM SCT150
     FM282000 35011KT P6SM SCT100 BKN150
     FM290600 VRB04KT P6SM BKN150=



000
FTUS46 KPDT 281100
TAFPDT
TAF
KPDT 281120Z 2812/2912 15007KT P6SM FEW110 BKN200
     FM281500 VRB04KT P6SM SCT200
     FM282000 33008KT P6SM FEW120 SCT200
     FM290400 15007KT P6SM SCT200=



000
FTUS46 KPDT 281100
TAFDLS
TAF
KDLS 281120Z 2812/2912 30010KT P6SM SCT150=



000
FTUS46 KPDT 281100
TAFPSC
TAF
KPSC 281120Z 2812/2912 VRB04KT P6SM FEW120 BKN200
     FM282000 33008KT P6SM FEW120 SCT200
     FM290400 VRB04KT P6SM SCT200=



000
FTUS46 KPDT 280500
TAFPSC
TAF
KPSC 280532Z 2806/2906 VRB06KT P6SM BKN250
     FM281000 20007KT P6SM BKN250
     FM281500 VRB06KT P6SM FEW250
     FM282000 33008KT P6SM SCT250
     FM290400 20007KT P6SM SCT250=



000
FTUS46 KPDT 280500
TAFALW
TAF
KALW 280532Z 2806/2906 17007KT P6SM SCT150 BKN250
     FM281200 12007KT P6SM BKN250
     FM281500 VRB06KT P6SM FEW250
     FM282000 33008KT P6SM SCT250
     FM290400 15007KT P6SM SCT250=



000
FTUS46 KPDT 280500
TAFRDM
TAF
KRDM 280532Z 2806/2906 VRB06KT P6SM BKN250
     FM280800 17007KT P6SM SCT150
     FM282000 35011KT P6SM SCT050 BKN100=



000
FTUS46 KPDT 280500
TAFYKM
TAF
KYKM 280532Z 2806/2906 30007KT P6SM BKN250
     FM280800 30007KT P6SM SCT250
     FM282000 15007KT P6SM SKC
     FM290400 30007KT P6SM SKC=



000
FTUS46 KPDT 280500
TAFDLS
TAF
KDLS 280532Z 2806/2906 30008KT P6SM SCT150
     FM281500 32008KT P6SM SKC
     FM282000 30010KT P6SM SKC=



000
FTUS46 KPDT 280500
TAFPDT
TAF
KPDT 280532Z 2806/2906 15007KT P6SM SCT150 BKN250
     FM281200 15007KT P6SM BKN250
     FM281500 VRB06KT P6SM FEW250
     FM282000 33008KT P6SM SCT250
     FM290400 15007KT P6SM SCT250=



000
FTUS46 KPDT 280200 AAA
TAFPDT
TAF AMD
KPDT 280225Z 2802/2824 32010KT P6SM SCT250
     FM280500 12007KT P6SM SCT150 BKN200
     FM281500 VRB05KT P6SM FEW150
     FM282000 33009KT P6SM SKC=



000
FTUS46 KPDT 272300
TAFYKM
TAF
KYKM 272320Z 2800/2824 13005KT P6SM SCT200
     FM280400 31005KT P6SM BKN200
     FM280800 27008KT P6SM SCT200
     FM281900 14006KT P6SM SKC=



000
FTUS46 KPDT 272300
TAFPSC
TAF
KPSC 272320Z 2800/2824 34011KT P6SM SCT200
     FM280300 34006KT P6SM BKN150
     FM280900 35003KT P6SM SCT150
     FM281400 VRB03KT P6SM SKC
     FM282000 34007KT P6SM SKC=



000
FTUS46 KPDT 272300
TAFRDM
TAF
KRDM 272320Z 2800/2824 33010KT P6SM FEW110 BKN150
     FM280500 VRB04KT P6SM BKN150
     FM281000 16004KT P6SM SCT150
     FM282100 35011KT P6SM SCT120=



000
FTUS46 KPDT 272300
TAFPDT
TAF
KPDT 272320Z 2800/2824 02011KT P6SM SCT200
     FM280500 12007KT P6SM SCT150 BKN200
     FM281500 VRB05KT P6SM FEW150
     FM282000 33009KT P6SM SKC=



000
FTUS46 KPDT 272300
TAFDLS
TAF
KDLS 272320Z 2800/2824 VRB06KT P6SM BKN150
     FM280600 30006KT P6SM SCT150
     FM281500 32008KT P6SM SKC
     FM282000 31011KT P6SM SKC=



000
FTUS46 KPDT 272300
TAFALW
TAF
KALW 272320Z 2800/2824 22006KT P6SM SCT200
     FM280400 10006KT P6SM BKN150
     FM281400 VRB05KT P6SM SCT150
     FM282000 27007KT P6SM SKC=



000
FTUS46 KPDT 271700
TAFPSC
TAF
KPSC 271720Z 2718/2818 35004KT P6SM FEW250
     FM272200 01005KT P6SM SCT200
     FM280300 34004KT P6SM SCT150 BKN200
     FM280900 35003KT P6SM SCT200
     FM281400 VRB03KT P6SM SKC=



000
FTUS46 KPDT 271700
TAFPDT
TAF
KPDT 271720Z 2718/2818 32004KT P6SM FEW250
     FM272100 35009KT P6SM SCT200
     FM280400 12007KT P6SM SCT150 BKN200
     FM281500 VRB05KT P6SM SKC=



000
FTUS46 KPDT 271700
TAFYKM
TAF
KYKM 271720Z 2718/2818 26007KT P6SM FEW200
     FM272000 12005KT P6SM SCT200
     FM280400 32005KT P6SM FEW150 SCT200
     FM280700 27008KT P6SM SKC=



000
FTUS46 KPDT 271700
TAFRDM
TAF
KRDM 271720Z 2718/2818 34005KT P6SM SCT200
     FM272100 35010KT P6SM SCT150 BKN200
     FM280400 VRB04KT P6SM BKN200
     FM281000 16004KT P6SM SKC=



000
FTUS46 KPDT 271700
TAFALW
TAF
KALW 271720Z 2718/2818 29005KT P6SM FEW250
     FM272200 33006KT P6SM SCT200
     FM280400 10006KT P6SM SCT150 BKN200
     FM281400 VRB05KT P6SM SKC=



000
FTUS46 KPDT 271700
TAFDLS
TAF
KDLS 271720Z 2718/2818 33009KT P6SM SCT250
     FM272200 33011KT P6SM SCT150 BKN200
     FM280600 31006KT P6SM FEW200
     FM281500 32008KT P6SM SKC=



000
FTUS46 KPDT 271100
TAFPDT
TAF
KPDT 271120Z 2712/2812 13006KT P6SM SKC
     FM271600 32004KT P6SM FEW250
     FM272100 35009KT P6SM SCT250
     FM280400 12007KT P6SM SCT140 BKN200=



000
FTUS46 KPDT 271100
TAFDLS
TAF
KDLS 271120Z 2712/2812 32008KT P6SM SKC
     FM271800 33009KT P6SM SCT250
     FM272200 33011KT P6SM FEW150 BKN200
     FM280600 32008KT P6SM FEW200=



000
FTUS46 KPDT 271100
TAFYKM
TAF
KYKM 271120Z 2712/2812 28006KT P6SM SKC
     FM271800 12005KT P6SM FEW250
     FM280300 32005KT P6SM FEW150 BKN200
     FM280600 27005KT P6SM SCT200=



000
FTUS46 KPDT 271100
TAFALW
TAF
KALW 271120Z 2712/2812 12006KT P6SM SKC
     FM271800 29005KT P6SM FEW250
     FM272200 33006KT P6SM SCT250
     FM280400 10006KT P6SM SCT140 BKN200=



000
FTUS46 KPDT 271100
TAFRDM
TAF
KRDM 271120Z 2712/2812 VRB03KT P6SM SKC
     FM271800 36005KT P6SM SCT250
     FM272100 35010KT P6SM SCT140 BKN200
     FM280400 VRB03KT P6SM BKN200=



000
FTUS46 KPDT 271100
TAFPSC
TAF
KPSC 271120Z 2712/2812 35004KT P6SM SKC
     FM272200 02005KT P6SM SCT250
     FM280300 34004KT P6SM SCT150 BKN200
     FM280900 35002KT P6SM SCT200=



000
FTUS46 KPDT 270500
TAFPSC
TAF
KPSC 270520Z 2706/2806 35004KT P6SM SKC
     FM272200 02005KT P6SM SCT250
     FM280300 34004KT P6SM SCT150 BKN250=



000
FTUS46 KPDT 270500
TAFPDT
TAF
KPDT 270520Z 2706/2806 12006KT P6SM SKC
     FM271700 32004KT P6SM FEW250
     FM272100 35009KT P6SM SCT250
     FM280200 02007KT P6SM SCT140 BKN250=



000
FTUS46 KPDT 270500
TAFDLS
TAF
KDLS 270520Z 2706/2806 31010KT P6SM SKC
     FM270900 33003KT P6SM SKC
     FM271800 33007KT P6SM SCT250
     FM272200 33010KT P6SM FEW150 BKN250=



000
FTUS46 KPDT 270500
TAFALW
TAF
KALW 270520Z 2706/2806 12006KT P6SM SKC
     FM271800 29005KT P6SM FEW250
     FM272200 33006KT P6SM SCT250
     FM280300 05006KT P6SM SCT140 BKN250=



000
FTUS46 KPDT 270500
TAFRDM
TAF
KRDM 270520Z 2706/2806 33006KT P6SM SKC
     FM270900 15003KT P6SM SKC
     FM271800 36005KT P6SM SCT250
     FM272100 35010KT P6SM SCT140 BKN250=



000
FTUS46 KPDT 270500
TAFYKM
TAF
KYKM 270520Z 2706/2806 28006KT P6SM SKC
     FM271800 12005KT P6SM FEW250
     FM280300 32005KT P6SM FEW150 BKN250=



000
FTUS46 KPDT 262300
TAFPSC
TAF
KPSC 262320Z 2700/2724 35005KT P6SM SKC
     FM272100 36004KT P6SM SCT250=



000
FTUS46 KPDT 262300
TAFALW
TAF
KALW 262320Z 2700/2724 VRB05KT P6SM SKC
     FM270400 12006KT P6SM SKC
     FM271500 VRB04KT P6SM SCT250=



000
FTUS46 KPDT 262300
TAFYKM
TAF
KYKM 262320Z 2700/2724 VRB05KT P6SM SKC
     FM270300 32008KT P6SM SKC
     FM271800 13005KT P6SM SCT250=



000
FTUS46 KPDT 262300
TAFRDM
TAF
KRDM 262320Z 2700/2724 35010G15KT P6SM SKC
     FM270400 VRB03KT P6SM SKC
     FM272100 36010KT P6SM SCT080 SCT250=



000
FTUS46 KPDT 262300
TAFDLS
TAF
KDLS 262320Z 2700/2724 32011KT P6SM SKC
     FM270400 32006KT P6SM SKC
     FM270900 VRB04KT P6SM SKC
     FM271800 33007KT P6SM SCT250=



000
FTUS46 KPDT 262300
TAFPDT
TAF
KPDT 262320Z 2700/2724 36010KT P6SM SKC
     FM270400 12006KT P6SM SKC
     FM271900 35008KT P6SM SCT250=



000
FTUS46 KPDT 261700
TAFPSC
TAF
KPSC 261720Z 2618/2718 36004KT P6SM SKC=



000
FTUS46 KPDT 261700
TAFYKM
TAF
KYKM 261720Z 2618/2718 VRB05KT P6SM SKC
     FM270300 32008KT P6SM SKC=



000
FTUS46 KPDT 261700
TAFALW
TAF
KALW 261720Z 2618/2718 VRB05KT P6SM SKC
     FM262200 34006KT P6SM SKC
     FM270400 12006KT P6SM SKC
     FM271500 VRB04KT P6SM SKC=



000
FTUS46 KPDT 261700
TAFRDM
TAF
KRDM 261720Z 2618/2718 VRB04KT P6SM SKC
     FM262100 35012KT P6SM FEW080
     FM270400 VRB03KT P6SM SKC=



000
FTUS46 KPDT 261700
TAFPDT
TAF
KPDT 261720Z 2618/2718 VRB05KT P6SM SKC
     FM262100 36008KT P6SM SKC
     FM270400 12006KT P6SM SKC=



000
FTUS46 KPDT 261700
TAFDLS
TAF
KDLS 261720Z 2618/2718 32007KT P6SM SKC
     FM262100 32010G18KT P6SM SKC
     FM270400 32007KT P6SM SKC=



000
FTUS46 KPDT 261100
TAFPSC
TAF
KPSC 261120Z 2612/2712 35005KT P6SM SKC=



000
FTUS46 KPDT 261100
TAFYKM
TAF
KYKM 261120Z 2612/2712 26005KT P6SM SKC
     FM261500 VRB04KT P6SM SKC
     FM270400 32006KT P6SM SKC=



000
FTUS46 KPDT 261100
TAFDLS
TAF
KDLS 261120Z 2612/2712 32008KT P6SM SKC
     FM262100 32010G18KT P6SM SKC
     FM270400 32008KT P6SM SKC=



000
FTUS46 KPDT 261100
TAFRDM
TAF
KRDM 261120Z 2612/2712 VRB04KT P6SM SKC
     FM262000 34009KT P6SM FEW080
     FM270400 VRB03KT P6SM SKC=



000
FTUS46 KPDT 261100
TAFPDT
TAF
KPDT 261120Z 2612/2712 13006KT P6SM SKC
     FM261700 31008KT P6SM SKC
     FM270400 12006KT P6SM SKC=



000
FTUS46 KPDT 261100
TAFALW
TAF
KALW 261120Z 2612/2712 11007KT P6SM SKC
     FM261500 22005KT P6SM SKC
     FM261800 29006KT P6SM SKC
     FM270400 13006KT P6SM SKC=



000
FTUS46 KPDT 260500
TAFDLS
TAF
KDLS 260520Z 2606/2706 32008KT P6SM SKC
     FM262100 32012G18KT P6SM SKC=



000
FTUS46 KPDT 260500
TAFPDT
TAF
KPDT 260520Z 2606/2706 13006KT P6SM SKC
     FM261700 31008KT P6SM SKC=



000
FTUS46 KPDT 260500
TAFRDM
TAF
KRDM 260520Z 2606/2706 33007KT P6SM SKC
     FM260900 16003KT P6SM SKC
     FM262100 34009KT P6SM FEW070=



000
FTUS46 KPDT 260500
TAFALW
TAF
KALW 260520Z 2606/2706 11007KT P6SM SKC
     FM261500 22005KT P6SM SKC
     FM262100 29006KT P6SM SKC=



000
FTUS46 KPDT 260500
TAFPSC
TAF
KPSC 260520Z 2606/2706 11003KT P6SM SKC
     FM261800 35005KT P6SM SKC
     FM270200 12004KT P6SM SKC=



000
FTUS46 KPDT 260500
TAFYKM
TAF
KYKM 260520Z 2606/2706 31006KT P6SM SKC
     FM261000 26005KT P6SM SKC
     FM261700 11004KT P6SM SKC=



000
FTUS46 KPDT 252300
TAFALW
TAF
KALW 252320Z 2600/2624 24005KT P6SM SKC
     FM260600 13006KT P6SM SKC
     FM261800 25006KT P6SM SKC=



000
FTUS46 KPDT 252300
TAFDLS
TAF
KDLS 252320Z 2600/2624 33011KT P6SM SKC
     FM260600 31008KT P6SM SKC
     FM262100 32012KT P6SM SKC=



000
FTUS46 KPDT 252300
TAFRDM
TAF
KRDM 252320Z 2600/2624 34010KT P6SM SKC
     FM260600 VRB04KT P6SM SKC
     FM262100 34008KT P6SM SKC=



000
FTUS46 KPDT 252300
TAFPSC
TAF
KPSC 252320Z 2600/2624 36005KT P6SM SKC
     FM260300 VRB04KT P6SM SKC=



000
FTUS46 KPDT 252300
TAFYKM
TAF
KYKM 252320Z 2600/2624 11005KT P6SM FEW070
     FM260400 28007KT P6SM SKC
     FM261800 VRB05KT P6SM SKC=



000
FTUS46 KPDT 252300
TAFPDT
TAF
KPDT 252320Z 2600/2624 32007KT P6SM SKC
     FM260600 13005KT P6SM SKC
     FM262100 31008KT P6SM SKC=



    US Dept of Commerce
    National Oceanic and Atmospheric Administration
    National Weather Service
    1325 East West Highway
    Silver Spring, MD 20910
    Page Author: NWS Internet Services Team
Disclaimer
Information Quality
Credits
Glossary
Privacy Policy
Freedom of Information Act (FOIA)
About Us
Career Opportunities